createdAt,value
2022-10-04T00:01:13.407Z,125.28
2022-10-04T00:03:48.702Z,126.53
2022-10-04T00:06:25.123Z,124.20
2022-10-04T00:08:55.293Z,125.07
2022-10-04T00:11:32.483Z,129.18
2022-10-04T00:14:05.332Z,123.88
2022-10-04T00:16:37.084Z,123.65
2022-10-04T00:19:15.857Z,123.95
2022-10-04T00:21:55.363Z,122.20
2022-10-04T00:24:27.926Z,120.95
2022-10-04T00:27:10.203Z,118.63
2022-10-04T00:29:42.328Z,115.97
2022-10-04T00:32:11.547Z,117.47
2022-10-04T00:34:50.510Z,121.00
2022-10-04T00:37:19.070Z,109.85
2022-10-04T00:40:12.944Z,116.80
2022-10-04T00:43:03.253Z,109.45
2022-10-04T00:45:35.302Z,109.13
2022-10-04T00:48:04.617Z,113.78
2022-10-04T00:50:38.760Z,116.43
2022-10-04T00:53:31.484Z,113.22
2022-10-04T00:56:03.443Z,114.10
2022-10-04T00:58:37.390Z,114.65
2022-10-04T01:01:05.177Z,113.95
2022-10-04T01:03:39.781Z,129.30
2022-10-04T01:08:40.777Z,91.30
2022-10-04T01:11:13.167Z,122.18
2022-10-04T01:13:58.642Z,124.88
2022-10-04T01:16:27.848Z,118.30
2022-10-04T01:18:54.521Z,125.72
2022-10-04T01:21:20.934Z,119.72
2022-10-04T01:23:53.248Z,128.55
2022-10-04T01:26:35.008Z,119.80
2022-10-04T01:29:07.366Z,123.00
2022-10-04T01:31:37.542Z,116.30
2022-10-04T01:34:05.691Z,108.20
2022-10-04T01:36:33.679Z,122.50
2022-10-04T01:39:00.739Z,115.07
2022-10-04T01:41:51.342Z,134.00
2022-10-04T01:44:27.601Z,131.80
2022-10-04T01:46:56.814Z,119.90
2022-10-04T01:49:28.774Z,120.15
2022-10-04T01:52:08.597Z,111.30
2022-10-04T01:54:41.232Z,104.30
2022-10-04T01:57:25.018Z,99.90
2022-10-04T01:59:55.062Z,78.90
2022-10-04T02:02:30.760Z,75.25
2022-10-04T02:04:59.554Z,68.25
2022-10-04T02:07:31.962Z,68.57
2022-10-04T02:10:02.883Z,57.45
2022-10-04T02:12:34.858Z,62.90
2022-10-04T02:15:04.282Z,69.82
2022-10-04T02:17:37.537Z,74.63
2022-10-04T02:20:14.298Z,61.78
2022-10-04T02:22:43.195Z,59.92
2022-10-04T02:25:10.714Z,55.80
2022-10-04T02:27:37.391Z,56.13
2022-10-04T02:30:07.790Z,64.18
2022-10-04T02:32:54.000Z,70.05
2022-10-04T02:35:21.200Z,57.22
2022-10-04T02:37:58.623Z,58.88
2022-10-04T02:40:39.395Z,59.15
2022-10-04T02:43:20.570Z,50.00
2022-10-04T02:46:13.885Z,49.58
2022-10-04T02:48:56.716Z,40.75
2022-10-04T02:51:46.407Z,44.78
2022-10-04T02:54:31.975Z,48.03
2022-10-04T02:56:59.418Z,43.30
2022-10-04T02:59:26.570Z,43.72
2022-10-04T03:01:57.763Z,42.65
2022-10-04T03:04:39.030Z,41.67
2022-10-04T03:07:07.983Z,32.80
2022-10-04T03:09:37.797Z,29.20
2022-10-04T03:12:05.464Z,27.90
2022-10-04T03:14:32.533Z,29.00
2022-10-04T03:17:03.981Z,27.23
2022-10-04T03:19:32.549Z,27.95
2022-10-04T03:22:12.338Z,25.73
2022-10-04T03:24:54.418Z,26.77
2022-10-04T03:27:25.815Z,27.38
2022-10-04T03:29:58.269Z,30.05
2022-10-04T03:32:27.087Z,29.60
2022-10-04T03:35:02.958Z,31.17
2022-10-04T03:37:32.190Z,31.95
2022-10-04T03:39:59.904Z,32.60
2022-10-04T03:42:30.311Z,31.83
2022-10-04T03:45:07.478Z,32.22
2022-10-04T03:47:38.516Z,31.55
2022-10-04T03:50:22.068Z,31.23
2022-10-04T03:52:53.997Z,31.25
2022-10-04T03:55:24.227Z,31.30
2022-10-04T03:57:52.038Z,30.33
2022-10-04T04:00:19.519Z,30.38
2022-10-04T04:02:52.319Z,30.80
2022-10-04T04:05:29.873Z,31.20
2022-10-04T04:08:15.230Z,31.80
2022-10-04T04:10:50.296Z,31.75
2022-10-04T04:13:28.882Z,31.15
2022-10-04T04:15:56.733Z,31.55
2022-10-04T04:18:25.111Z,29.33
2022-10-04T04:20:56.875Z,29.77
2022-10-04T04:23:28.268Z,29.02
2022-10-04T04:25:59.732Z,29.25
2022-10-04T04:28:28.868Z,28.08
2022-10-04T04:31:27.069Z,27.38
2022-10-04T04:34:00.294Z,27.67
2022-10-04T04:36:32.172Z,26.85
2022-10-04T04:39:34.559Z,27.20
2022-10-04T04:42:14.914Z,26.92
2022-10-04T04:44:56.218Z,27.15
2022-10-04T04:47:30.346Z,27.50
2022-10-04T04:50:03.373Z,25.50
2022-10-04T04:52:31.808Z,27.73
2022-10-04T04:54:58.811Z,25.77
2022-10-04T04:57:25.742Z,26.25
2022-10-04T04:59:58.292Z,26.50
2022-10-04T05:02:36.808Z,24.60
2022-10-04T05:05:20.179Z,24.50
2022-10-04T05:07:47.787Z,24.40
2022-10-04T05:10:22.316Z,24.35
2022-10-04T05:12:49.651Z,25.17
2022-10-04T05:15:16.843Z,24.90
2022-10-04T05:17:45.279Z,24.75
2022-10-04T05:20:14.654Z,26.92
2022-10-04T05:22:46.772Z,26.30
2022-10-04T05:25:25.434Z,24.92
2022-10-04T05:27:53.742Z,27.55
2022-10-04T05:31:05.539Z,24.35
2022-10-04T05:33:51.434Z,25.98
2022-10-04T05:36:25.827Z,25.02
2022-10-04T05:39:02.829Z,24.92
2022-10-04T05:41:47.772Z,24.35
2022-10-04T05:44:50.277Z,25.23
2022-10-04T05:47:22.883Z,24.42
2022-10-04T05:49:52.127Z,24.88
2022-10-04T05:52:38.836Z,24.52
2022-10-04T05:55:28.689Z,27.30
2022-10-04T05:58:22.829Z,26.95
2022-10-04T06:01:22.562Z,27.70
2022-10-04T06:04:04.219Z,26.67
2022-10-04T06:06:51.460Z,26.77
2022-10-04T06:09:26.695Z,26.75
2022-10-04T06:12:08.319Z,27.50
2022-10-04T06:15:08.407Z,28.13
2022-10-04T06:17:45.644Z,29.98
2022-10-04T06:21:03.804Z,29.25
2022-10-04T06:23:33.695Z,28.00
2022-10-04T06:26:12.723Z,27.52
2022-10-04T06:28:55.797Z,29.35
2022-10-04T06:31:24.260Z,30.02
2022-10-04T06:34:12.306Z,29.83
2022-10-04T06:37:10.863Z,29.02
2022-10-04T06:39:58.124Z,27.10
2022-10-04T06:42:37.121Z,27.83
2022-10-04T06:45:12.331Z,27.92
2022-10-04T06:47:51.231Z,26.65
2022-10-04T06:50:36.190Z,27.45
2022-10-04T06:55:49.776Z,30.35
2022-10-04T06:58:49.761Z,31.83
2022-10-04T07:01:38.353Z,30.50
2022-10-04T07:05:06.867Z,31.40
2022-10-04T07:07:36.103Z,29.08
2022-10-04T07:10:33.131Z,30.45
2022-10-04T07:13:40.978Z,29.13
2022-10-04T07:16:17.682Z,29.67
2022-10-04T07:19:05.519Z,36.72
2022-10-04T07:22:07.298Z,34.25
2022-10-04T07:24:51.458Z,37.10
2022-10-04T07:27:26.114Z,37.60
2022-10-04T07:29:58.100Z,40.38
2022-10-04T07:32:30.040Z,38.20
2022-10-04T07:35:16.897Z,46.28
2022-10-04T07:38:15.818Z,48.70
2022-10-04T07:41:21.688Z,55.45
2022-10-04T07:44:03.879Z,45.20
2022-10-04T07:46:42.208Z,48.78
2022-10-04T07:49:17.819Z,48.35
2022-10-04T07:52:10.603Z,53.25
2022-10-04T07:54:43.654Z,55.05
2022-10-04T07:57:28.050Z,45.03
2022-10-04T08:00:17.673Z,51.45
2022-10-04T08:03:09.073Z,62.10
2022-10-04T08:05:48.107Z,63.70
2022-10-04T08:08:46.204Z,83.28
2022-10-04T08:11:18.354Z,121.57
2022-10-04T08:14:09.115Z,111.55
2022-10-04T08:16:45.825Z,133.50
2022-10-04T08:19:36.063Z,206.68
2022-10-04T08:22:12.370Z,255.95
2022-10-04T08:24:53.476Z,264.70
2022-10-04T08:27:41.592Z,271.75
2022-10-04T08:30:18.190Z,287.88
2022-10-04T08:33:26.300Z,254.82
2022-10-04T08:36:00.532Z,275.65
2022-10-04T08:38:47.939Z,266.20
2022-10-04T08:41:43.149Z,224.77
2022-10-04T08:47:22.204Z,267.73
2022-10-04T08:49:54.834Z,207.52
2022-10-04T08:52:49.702Z,258.58
2022-10-04T08:55:58.127Z,171.90
2022-10-04T08:58:42.955Z,181.50
2022-10-04T09:04:31.897Z,77.88
2022-10-04T09:07:35.592Z,89.20
2022-10-04T09:10:05.602Z,138.13
2022-10-04T09:13:02.854Z,89.13
2022-10-04T09:15:39.385Z,43.78
2022-10-04T09:18:11.875Z,39.60
2022-10-04T09:21:11.725Z,32.28
2022-10-04T09:23:59.696Z,33.85
2022-10-04T09:26:37.582Z,31.73
2022-10-04T09:29:22.419Z,30.58
2022-10-04T09:34:24.565Z,33.92
2022-10-04T09:37:23.984Z,31.85
2022-10-04T09:40:08.220Z,33.22
2022-10-04T09:42:52.496Z,31.15
2022-10-04T09:45:37.812Z,34.97
2022-10-04T09:48:37.072Z,31.30
2022-10-04T09:51:08.037Z,32.05
2022-10-04T09:54:07.690Z,30.80
2022-10-04T09:56:46.795Z,33.58
2022-10-04T09:59:39.748Z,31.42
2022-10-04T10:02:18.739Z,31.55
2022-10-04T10:05:06.883Z,30.55
2022-10-04T10:07:52.826Z,33.65
2022-10-04T10:11:02.712Z,31.05
2022-10-04T10:13:56.392Z,33.75
2022-10-04T10:16:52.263Z,34.28
2022-10-04T10:20:11.896Z,36.58
2022-10-04T10:23:01.127Z,38.03
2022-10-04T10:25:49.286Z,36.33
2022-10-04T10:28:37.494Z,38.38
2022-10-04T10:31:28.407Z,38.20
2022-10-04T10:34:21.484Z,36.95
2022-10-04T10:37:09.963Z,36.17
2022-10-04T10:40:14.408Z,36.63
2022-10-04T10:43:01.175Z,36.20
2022-10-04T10:46:06.179Z,35.58
2022-10-04T10:49:02.978Z,64.75
2022-10-04T10:51:56.065Z,34.28
2022-10-04T10:55:03.547Z,31.13
2022-10-04T10:58:11.693Z,32.88
2022-10-04T11:00:51.407Z,26.27
2022-10-04T11:03:36.424Z,26.85
2022-10-04T11:06:39.402Z,31.65
2022-10-04T11:09:35.055Z,56.47
2022-10-04T11:12:07.298Z,71.05
2022-10-04T11:14:55.319Z,75.40
2022-10-04T11:17:27.978Z,44.80
2022-10-04T11:20:05.753Z,38.30
2022-10-04T11:23:00.112Z,32.35
2022-10-04T11:26:05.255Z,32.80
2022-10-04T11:28:43.365Z,24.02
2022-10-04T11:31:37.605Z,15.23
2022-10-04T11:34:41.442Z,15.38
2022-10-04T11:37:07.899Z,15.20
2022-10-04T11:39:46.227Z,14.48
2022-10-04T11:42:18.107Z,15.38
2022-10-04T11:45:19.850Z,14.20
2022-10-04T11:48:21.439Z,15.13
2022-10-04T11:50:56.866Z,14.50
2022-10-04T11:53:27.308Z,15.40
2022-10-04T11:56:19.305Z,15.55
2022-10-04T11:59:00.822Z,15.68
2022-10-04T12:01:52.073Z,14.95
2022-10-04T12:04:47.986Z,14.98
2022-10-04T12:07:39.220Z,15.32
2022-10-04T12:10:29.924Z,15.15
2022-10-04T12:13:27.728Z,15.70
2022-10-04T12:16:31.666Z,20.15
2022-10-04T12:19:20.942Z,23.08
2022-10-04T12:22:07.532Z,19.27
2022-10-04T12:25:03.478Z,17.88
2022-10-04T12:27:48.341Z,15.23
2022-10-04T12:30:46.485Z,21.70
2022-10-04T12:33:15.711Z,16.98
2022-10-04T12:35:58.451Z,17.50
2022-10-04T12:38:46.657Z,15.25
2022-10-04T12:41:25.023Z,14.93
2022-10-04T12:44:05.087Z,16.20
2022-10-04T12:46:53.065Z,13.93
2022-10-04T12:49:41.897Z,14.77
2022-10-04T12:52:16.442Z,14.13
2022-10-04T12:54:47.595Z,16.27
2022-10-04T12:57:14.027Z,16.60
2022-10-04T12:59:51.071Z,16.25
2022-10-04T13:02:29.495Z,16.60
2022-10-04T13:05:20.569Z,15.10
2022-10-04T13:08:24.670Z,15.00
2022-10-04T13:11:07.608Z,16.55
2022-10-04T13:13:51.698Z,16.60
2022-10-04T13:19:31.215Z,14.07
2022-10-04T13:22:44.038Z,12.68
2022-10-04T13:25:15.259Z,11.95
2022-10-04T13:28:16.722Z,11.48
2022-10-04T13:31:05.779Z,10.73
2022-10-04T13:33:50.661Z,11.05
2022-10-04T13:36:29.367Z,11.80
2022-10-04T13:39:07.404Z,11.63
2022-10-04T13:41:43.647Z,11.77
2022-10-04T13:44:24.918Z,12.02
2022-10-04T13:47:05.121Z,12.23
2022-10-04T13:50:02.520Z,12.85
2022-10-04T13:53:06.089Z,12.90
2022-10-04T13:55:58.221Z,12.33
2022-10-04T13:58:56.748Z,14.95
2022-10-04T14:01:38.141Z,11.05
2022-10-04T14:04:51.222Z,10.52
2022-10-04T14:07:56.484Z,11.18
2022-10-04T14:10:31.811Z,10.27
2022-10-04T14:13:18.267Z,11.13
2022-10-04T14:16:03.111Z,10.70
2022-10-04T14:18:35.386Z,10.52
2022-10-04T14:21:24.890Z,12.07
2022-10-04T14:23:54.729Z,10.57
2022-10-04T14:26:31.359Z,12.55
2022-10-04T14:29:09.790Z,11.13
2022-10-04T14:32:09.862Z,11.10
2022-10-04T14:34:57.014Z,11.95
2022-10-04T14:37:35.459Z,11.35
2022-10-04T14:40:20.179Z,11.50
2022-10-04T14:43:08.374Z,11.25
2022-10-04T14:45:53.624Z,13.73
2022-10-04T14:48:44.160Z,11.10
2022-10-04T14:51:19.525Z,11.05
2022-10-04T14:54:07.772Z,11.30
2022-10-04T14:56:58.602Z,11.35
2022-10-04T14:59:37.767Z,11.40
2022-10-04T15:02:07.326Z,11.30
2022-10-04T15:04:37.398Z,11.30
2022-10-04T15:07:31.897Z,11.77
2022-10-04T15:13:10.042Z,11.80
2022-10-04T15:16:12.915Z,12.65
2022-10-04T15:19:04.458Z,13.07
2022-10-04T15:21:51.138Z,13.30
2022-10-04T15:24:24.207Z,12.60
2022-10-04T15:27:18.928Z,12.60
2022-10-04T15:30:23.558Z,12.27
2022-10-04T15:33:14.532Z,13.15
2022-10-04T15:36:02.391Z,13.27
2022-10-04T15:38:34.932Z,13.93
2022-10-04T15:41:29.553Z,13.20
2022-10-04T15:46:39.346Z,12.20
2022-10-04T15:49:08.818Z,12.45
2022-10-04T15:52:03.266Z,12.70
2022-10-04T15:55:01.084Z,13.40
2022-10-04T15:57:45.877Z,13.00
2022-10-04T16:00:19.923Z,12.95
2022-10-04T16:05:44.093Z,15.82
2022-10-04T16:08:11.036Z,14.88
2022-10-04T16:10:58.545Z,13.48
2022-10-04T16:13:28.450Z,14.25
2022-10-04T16:16:16.900Z,14.80
2022-10-04T16:19:09.954Z,16.70
2022-10-04T16:22:09.379Z,16.85
2022-10-04T16:24:45.694Z,17.35
2022-10-04T16:27:43.055Z,16.90
2022-10-04T16:30:27.509Z,18.50
2022-10-04T16:33:26.931Z,18.88
2022-10-04T16:36:13.202Z,20.98
2022-10-04T16:39:07.759Z,20.90
2022-10-04T16:41:40.650Z,23.70
2022-10-04T16:44:29.543Z,25.60
2022-10-04T16:47:03.122Z,26.67
2022-10-04T16:49:55.110Z,25.30
2022-10-04T16:52:48.150Z,27.05
2022-10-04T16:55:29.734Z,25.83
2022-10-04T16:58:27.199Z,28.52
2022-10-04T17:01:23.073Z,27.40
2022-10-04T17:04:04.888Z,28.17
2022-10-04T17:06:56.583Z,29.60
2022-10-04T17:09:32.438Z,28.13
2022-10-04T17:12:35.234Z,27.23
2022-10-04T17:15:40.265Z,24.05
2022-10-04T17:18:19.854Z,24.70
2022-10-04T17:20:57.004Z,23.60
2022-10-04T17:24:04.197Z,23.92
2022-10-04T17:26:38.411Z,23.52
2022-10-04T17:29:43.446Z,22.73
2022-10-04T17:32:29.690Z,21.50
2022-10-04T17:35:09.949Z,21.65
2022-10-04T17:37:58.864Z,21.38
2022-10-04T17:40:41.852Z,19.45
2022-10-04T17:43:15.427Z,20.58
2022-10-04T17:45:52.793Z,19.20
2022-10-04T17:49:21.293Z,20.25
2022-10-04T17:52:09.346Z,19.83
2022-10-04T17:54:57.130Z,19.23
2022-10-04T17:57:36.007Z,21.48
2022-10-04T18:00:15.210Z,21.55
2022-10-04T18:03:15.567Z,21.13
2022-10-04T18:05:42.023Z,24.15
2022-10-04T18:08:40.602Z,26.33
2022-10-04T18:11:47.065Z,26.90
2022-10-04T18:14:22.326Z,32.58
2022-10-04T18:16:57.192Z,32.92
2022-10-04T18:19:36.409Z,36.83
2022-10-04T18:22:26.463Z,42.10
2022-10-04T18:25:14.186Z,55.97
2022-10-04T18:28:06.969Z,65.47
2022-10-04T18:30:43.482Z,78.10
2022-10-04T18:33:16.448Z,95.95
2022-10-04T18:36:00.126Z,103.47
2022-10-04T18:38:31.138Z,115.55
2022-10-04T18:41:20.329Z,126.15
2022-10-04T18:43:51.369Z,123.07
2022-10-04T18:46:22.970Z,132.38
2022-10-04T18:49:12.336Z,130.38
2022-10-04T18:51:53.896Z,121.45
2022-10-04T18:54:48.426Z,117.55
2022-10-04T18:57:15.318Z,115.40
2022-10-04T19:00:10.801Z,100.75
2022-10-04T19:03:14.438Z,92.50
2022-10-04T19:05:54.779Z,83.88
2022-10-04T19:08:48.011Z,80.20
2022-10-04T19:11:28.727Z,71.38
2022-10-04T19:14:33.886Z,69.13
2022-10-04T19:17:07.510Z,62.65
2022-10-04T19:19:42.824Z,62.10
2022-10-04T19:22:22.703Z,66.35
2022-10-04T19:25:25.507Z,65.85
2022-10-04T19:28:18.478Z,67.13
2022-10-04T19:31:00.097Z,74.25
2022-10-04T19:33:52.744Z,76.97
2022-10-04T19:36:33.889Z,82.30
2022-10-04T19:39:34.603Z,82.82
2022-10-04T19:42:42.691Z,87.68
2022-10-04T19:45:43.914Z,90.43
2022-10-04T19:48:26.785Z,96.60
2022-10-04T19:51:03.735Z,103.70
2022-10-04T19:53:40.847Z,106.18
2022-10-04T19:56:16.463Z,107.90
2022-10-04T19:58:47.696Z,114.35
2022-10-04T20:01:24.057Z,117.05
2022-10-04T20:04:12.062Z,117.38
2022-10-04T20:06:50.079Z,114.15
2022-10-04T20:09:51.436Z,121.70
2022-10-04T20:12:40.191Z,120.85
2022-10-04T20:15:19.546Z,122.78
2022-10-04T20:17:49.856Z,125.03
2022-10-04T20:20:38.982Z,129.45
2022-10-04T20:23:09.897Z,120.03
2022-10-04T20:25:45.808Z,122.85
2022-10-04T20:28:27.672Z,114.63
2022-10-04T20:30:59.105Z,102.43
2022-10-04T20:33:34.500Z,94.50
2022-10-04T20:36:29.469Z,88.82
2022-10-04T20:39:01.900Z,77.55
2022-10-04T20:41:28.379Z,75.80
2022-10-04T20:44:04.060Z,68.50
2022-10-04T20:46:38.209Z,59.40
2022-10-04T20:49:14.194Z,53.65
2022-10-04T20:51:47.691Z,51.95
2022-10-04T20:54:21.787Z,49.78
2022-10-04T20:56:50.191Z,50.53
2022-10-04T20:59:17.863Z,47.40
2022-10-04T21:02:01.727Z,44.05
2022-10-04T21:04:32.743Z,40.72
2022-10-04T21:07:12.722Z,38.22
2022-10-04T21:09:41.438Z,37.00
2022-10-04T21:12:44.695Z,37.22
2022-10-04T21:15:17.315Z,36.40
2022-10-04T21:17:59.830Z,35.67
2022-10-04T21:20:46.115Z,35.28
2022-10-04T21:23:33.016Z,36.97
2022-10-04T21:26:21.425Z,41.13
2022-10-04T21:28:58.113Z,44.15
2022-10-04T21:31:25.455Z,48.17
2022-10-04T21:33:52.008Z,47.95
2022-10-04T21:36:18.521Z,50.03
2022-10-04T21:38:45.083Z,49.65
2022-10-04T21:41:11.635Z,51.28
2022-10-04T21:43:38.179Z,57.40
2022-10-04T21:46:04.958Z,64.88
2022-10-04T21:48:31.572Z,72.25
2022-10-04T21:50:58.090Z,81.22
2022-10-04T21:53:24.667Z,96.97
2022-10-04T21:55:51.243Z,119.43
2022-10-04T21:58:17.760Z,120.18
2022-10-04T22:00:44.343Z,114.07
2022-10-04T22:03:10.934Z,106.18
2022-10-04T22:05:37.471Z,107.47
2022-10-04T22:08:04.081Z,111.43
2022-10-04T22:10:31.124Z,119.22
2022-10-04T22:12:57.888Z,119.78
2022-10-04T22:15:25.499Z,117.85
2022-10-04T22:17:52.042Z,114.53
2022-10-04T22:20:18.955Z,116.65
2022-10-04T22:22:46.031Z,124.72
2022-10-04T22:25:18.418Z,129.18
2022-10-04T22:27:46.342Z,125.70
2022-10-04T22:30:38.895Z,126.53
2022-10-04T22:33:40.709Z,122.03
2022-10-04T22:36:31.443Z,113.40
2022-10-04T22:39:08.928Z,111.68
2022-10-04T22:41:38.984Z,111.00
2022-10-04T22:44:18.163Z,112.25
2022-10-04T22:46:48.982Z,104.53
2022-10-04T22:49:20.618Z,105.80
2022-10-04T22:51:49.215Z,102.90
2022-10-04T22:54:18.874Z,100.93
2022-10-04T22:56:45.578Z,100.25
2022-10-04T22:59:14.647Z,98.97
2022-10-04T23:01:42.855Z,92.28
2022-10-04T23:04:21.348Z,89.75
2022-10-04T23:06:48.548Z,83.57
2022-10-04T23:09:15.389Z,82.60
2022-10-04T23:11:42.307Z,82.65
2022-10-04T23:14:09.148Z,79.28
2022-10-04T23:16:36.532Z,77.63
2022-10-04T23:19:14.897Z,74.68
2022-10-04T23:21:45.096Z,73.25
2022-10-04T23:24:17.786Z,70.97
2022-10-04T23:26:50.334Z,69.43
2022-10-04T23:29:16.776Z,66.70
2022-10-04T23:31:43.534Z,68.05
2022-10-04T23:34:30.624Z,65.10
2022-10-04T23:36:58.017Z,63.40
2022-10-04T23:39:33.830Z,62.70
2022-10-04T23:42:13.224Z,63.22
2022-10-04T23:44:40.033Z,59.72
2022-10-04T23:47:18.345Z,59.95
2022-10-04T23:49:48.157Z,57.90
2022-10-04T23:52:20.333Z,57.30
2022-10-04T23:54:49.738Z,54.55
2022-10-04T23:57:22.235Z,50.05
2022-10-04T23:59:49.737Z,48.35
